Terminal Aerodrome Forecast
Issued by NWS Jackson, MS

Home | Current Version | Previous Version | Text Only | Print | Product List | Glossary On
Versions: 1 2 3 4 5 6 7 8 9 10 11 12 13 14 15 16 17 18
000
FTUS44 KMEG 291740
TAFTUP
TAF
KTUP 291740Z 2918/3018 19006KT P6SM VCTS SCT025 BKN035CB
     FM300100 18005KT P6SM SCT050 SCT250
     FM301000 17006KT P6SM SCT006 OVC015
      TEMPO 3010/3014 OVC006
     FM301600 19010KT P6SM VCTS SCT015 BKN025CB=

USA.gov is the U.S. government's official web portal to all federal, state and local government web resources and services.